Nearby METAR Reports

 

KSJC - San Jose, California, USA
Distance from station: NE 9mi, 14km
Updated: 03,04/2021 5:53am
Clear
Clear
 Wind from SSE
Wind: SSE 7 mph , 11 km/h
Temperature: 45°F , 7°C
Wind Chill: 41°F , 5°C
Dew Point: 39°F , 4°C
Humidity: 81%
Barometer: 30.13 inHg , 1020.3 hPa
Clouds: Clear
Visibility: 10 miles , 16 km
2021/03/04 10:53 KSJC 041053Z AUTO 16006KT 10SM CLR 07/04 A3013 RMK AO2 SLP204 T00720039
KNUQ - Moffett Nas/Mtn, California, USA
Distance from station: N 9mi, 14km
Updated: 03,04/2021 6:35am
Clear
Clear
 Wind from SW
Wind: SW 5 mph , 7 km/h
Temperature: 45°F , 7°C
Wind Chill: 42°F , 6°C
Dew Point: 39°F , 4°C
Humidity: 81%
Barometer: 30.15 inHg , 1021 hPa
Clouds: Clear
Visibility: 10 miles , 16 km
2021/03/04 11:35 KNUQ 041135Z AUTO 22004KT 10SM CLR 07/04 A3015 RMK AO2
KPAO - Palo Alto, California, USA
Distance from station: NNW 14mi, 23km
Updated: 03,03/2021 11:47pm
NOT Current
Clear
Clear
 Wind from varies
Wind: varies 5 mph , 7 km/h
Temperature: 48°F , 9°C
Wind Chill: 46°F , 8°C
Dew Point: 39°F , 4°C
Humidity: 71%
Barometer: 29.99 inHg , 1015.6 hPa
Clouds: Clear
Visibility: 10 miles , 16 km
2021/03/04 04:47 KPAO 040447Z VRB04KT 10SM SKC 09/04 A2999 RMK LAST
 
KRHV - San Jose/Reid, California, USA
Distance from station: ENE 12mi, 19km
Updated: 03,04/2021 12:50am
NOT Current
Clear
Clear
 Wind from varies
Wind: varies 5 mph , 7 km/h
Temperature: 52°F , 11°C
Dew Point: 34°F , 1°C
Humidity: 50%
Barometer: 30.02 inHg , 1016.6 hPa
Clouds: Clear
Visibility: 10 miles , 16 km
2021/03/04 05:50 KRHV 040550Z VRB04KT 10SM SKC 11/01 A3002 RMK LAST
KOAK - Oakland, California, USA
Distance from station: NNW 31mi, 50km
Updated: 03,04/2021 5:53am
Few Clouds
Few Clouds
 Wind from WSW
Wind: WSW 8 mph , 13 km/h
Temperature: 54°F , 12°C
Dew Point: 43°F , 6°C
Humidity: 67%
Barometer: 30.15 inHg , 1021 hPa
Clouds: Few Clouds
Visibility: 10 miles , 16 km
Cloud details: Few Clouds 1800 ft
2021/03/04 10:53 KOAK 041053Z 25007KT 10SM FEW018 12/06 A3015 RMK AO2 SLP208 T01170056
KSQL - San Carlos Airpo, California, USA
Distance from station: NW 21mi, 34km
Updated: 03,04/2021 6:35am
Clear
Clear
 Wind from WSW
Wind: WSW 3 mph , 6 km/h
Temperature: 45°F , 7°C
Dew Point: 39°F , 4°C
Humidity: 81%
Barometer: 30.16 inHg , 1021.3 hPa
Clouds: Clear
Visibility: 10 miles , 16 km
2021/03/04 11:35 KSQL 041135Z AUTO 24003KT 10SM CLR 07/04 A3016 RMK AO2
 
KSFO - San Francisco, California, USA
Distance from station: NW 30mi, 49km
Updated: 03,04/2021 5:56am
Few Clouds
Few Clouds
 Wind from WSW
Wind: WSW 3 mph , 6 km/h
Temperature: 48°F , 9°C
Dew Point: 39°F , 4°C
Humidity: 71%
Barometer: 30.14 inHg , 1020.7 hPa
Clouds: Few Clouds
Visibility: 10 miles , 16 km
Cloud details: Few Clouds 2100 ft
2021/03/04 10:56 KSFO 041056Z 25003KT 10SM FEW021 09/04 A3014 RMK AO2 SLP206 T00940044
KE16 - San Martin, California, USA
Distance from station: ESE 27mi, 43km
Updated: 03,04/2021 6:35am
Partly cloudy
Partly cloudy
 Wind from S
Wind: S 3 mph , 6 km/h
Temperature: 41°F , 5°C
Dew Point: 39°F , 4°C
Humidity: 93%
Barometer: 30.18 inHg , 1022 hPa
Clouds: Partly cloudy
Visibility: 10 miles , 16 km
Cloud details: Partly cloudy 1900 ft
2021/03/04 11:35 KE16 041135Z AUTO 18003KT 10SM SCT019 05/04 A3018 RMK AO2 PWINO PNO
KWVI - Watsonville, California, USA
Distance from station: SSE 27mi, 44km
Updated: 03,04/2021 6:10am
Few Clouds
Few Clouds
 Wind from calm
Wind: Calm
Temperature: 43°F , 6°C
Dew Point: 39°F , 4°C
Humidity: 87%
Barometer: 30.16 inHg , 1021.3 hPa
Clouds: Few Clouds
Visibility: 10 miles , 16 km
Cloud details: Few Clouds 2200 ft
2021/03/04 11:10 KWVI 041110Z AUTO 00000KT 10SM FEW022 06/04 A3016 RMK AO2 T00560039
 
KHAF - Half Moon Bay, California, USA
Distance from station: WNW 31mi, 50km
Updated: 03,04/2021 6:35am
Overcast
Overcast
 Wind from SSE
Wind: SSE 6 mph , 9 km/h
Temperature: 48°F , 9°C
Wind Chill: 45°F , 7°C
Dew Point: 43°F , 6°C
Humidity: 82%
Barometer: 30.15 inHg , 1021 hPa
Clouds: Overcast
Visibility: 7 miles , 11 km
Cloud details: Overcast 2200 ft
2021/03/04 11:35 KHAF 041135Z AUTO 16005KT 7SM OVC022 09/06 A3015 RMK AO2
KHWD - Hayward, California, USA
Distance from station: N 28mi, 44km
Updated: 03,04/2021 5:54am
Clear
Clear
 Wind from calm
Wind: Calm
Temperature: 45°F , 7°C
Dew Point: 37°F , 3°C
Humidity: 76%
Barometer: 30.14 inHg , 1020.7 hPa
Clouds: Clear
Visibility: 10 miles , 16 km
2021/03/04 10:54 KHWD 041054Z 00000KT 10SM CLR 07/03 A3014 RMK AO2 SLP216 T00720033
KLVK - Livermore, California, USA
Distance from station: NNE 31mi, 51km
Updated: 03,04/2021 5:53am
Clear
Clear
 Wind from calm
Wind: Calm
Temperature: 41°F , 5°C
Dew Point: 37°F , 3°C
Humidity: 87%
Barometer: 30.13 inHg , 1020.3 hPa
Clouds: Clear
Visibility: 10 miles , 16 km
2021/03/04 10:53 KLVK 041053Z AUTO 00000KT 10SM CLR 05/03 A3013 RMK AO2 SLP200 T00500033